Ithaca Tompkins Regional Airport

Date: 2024-06-11 09:56:00Z

Type: METAR

Weather: Light Rain

Winds: 300° at 4 kts

Visibility: 2

Ceiling (AGL FT): Clouds OVERCAST at 1400, FEW at 4000, BROKEN at 25000, OVERCAST at 30000

RAW METAR: KITH 110956Z 30004KT 2SM -RA BR OVC014 11/10 A2993 RMK AO2 RAB47 SLP135 P0000 T01060100

project-image